METAR Data
IDs: Format: Raw Decoded Include TAF

Data at: 1339 UTC 08 May 2021

METAR for:KHLB (Batesville Arpt, IN, US)
Text:KHLB 081335Z AUTO 29005KT 10SM CLR 07/01 A3014 RMK A01
Temperature: 7.0°C ( 45°F)
Dewpoint: 1.0°C ( 34°F) [RH = 66%]
Pressure (altimeter):30.14 inches Hg (1020.7 mb)
Winds:from the WNW (290 degrees) at 6 MPH (5 knots; 2.6 m/s)
Visibility:10 or more sm (16+ km)
Ceiling:at least 12,000 feet AGL
Clouds:sky clear below 12,000 feet AGL
QC Flag:automated observation with no human augmentation
Text:KHLB 081315Z AUTO VRB03KT 10SM CLR 06/01 A3014 RMK A01
Temperature: 6.0°C ( 43°F)
Dewpoint: 1.0°C ( 34°F) [RH = 70%]
Pressure (altimeter):30.14 inches Hg (1020.7 mb)
Winds:variable direction winds at 3 MPH (3 knots; 1.5 m/s)
Visibility:10 or more sm (16+ km)
Ceiling:at least 12,000 feet AGL
Clouds:sky clear below 12,000 feet AGL
QC Flag:automated observation with no human augmentation
Text:KHLB 081255Z AUTO 00000KT 10SM CLR 06/02 A3014 RMK A01 P0001
Temperature: 6.0°C ( 43°F)
Dewpoint: 2.0°C ( 36°F) [RH = 75%]
Pressure (altimeter):30.14 inches Hg (1020.7 mb)
Winds:calm
Visibility:10 or more sm (16+ km)
Ceiling:at least 12,000 feet AGL
Clouds:sky clear below 12,000 feet AGL
QC Flag:automated observation with no human augmentation
Text:KHLB 081235Z AUTO VRB05KT 10SM CLR 05/02 A3013 RMK A01
Temperature: 5.0°C ( 41°F)
Dewpoint: 2.0°C ( 36°F) [RH = 81%]
Pressure (altimeter):30.13 inches Hg (1020.4 mb)
Winds:variable direction winds at 6 MPH (5 knots; 2.6 m/s)
Visibility:10 or more sm (16+ km)
Ceiling:at least 12,000 feet AGL
Clouds:sky clear below 12,000 feet AGL
QC Flag:automated observation with no human augmentation
Text:KHLB 081215Z AUTO 00000KT 10SM CLR 04/02 A3013 RMK A01
Temperature: 4.0°C ( 39°F)
Dewpoint: 2.0°C ( 36°F) [RH = 87%]
Pressure (altimeter):30.13 inches Hg (1020.4 mb)
Winds:calm
Visibility:10 or more sm (16+ km)
Ceiling:at least 12,000 feet AGL
Clouds:sky clear below 12,000 feet AGL
QC Flag:automated observation with no human augmentation
Text:KHLB 081155Z AUTO 00000KT 10SM CLR 03/03 A3012 RMK A01
Temperature: 3.0°C ( 37°F)
Dewpoint: 3.0°C ( 37°F) [RH = 100%]
Pressure (altimeter):30.12 inches Hg (1020.1 mb)
Winds:calm
Visibility:10 or more sm (16+ km)
Ceiling:at least 12,000 feet AGL
Clouds:sky clear below 12,000 feet AGL
QC Flag:automated observation with no human augmentation
Text:KHLB 081135Z AUTO 00000KT 10SM CLR 02/02 A3011 RMK A01
Temperature: 2.0°C ( 36°F)
Dewpoint: 2.0°C ( 36°F) [RH = 100%]
Pressure (altimeter):30.11 inches Hg (1019.7 mb)
Winds:calm
Visibility:10 or more sm (16+ km)
Ceiling:at least 12,000 feet AGL
Clouds:sky clear below 12,000 feet AGL
QC Flag:automated observation with no human augmentation
Text:KHLB 081115Z AUTO 00000KT 10SM CLR 01/01 A3010 RMK A01
Temperature: 1.0°C ( 34°F)
Dewpoint: 1.0°C ( 34°F) [RH = 100%]
Pressure (altimeter):30.10 inches Hg (1019.4 mb)
Winds:calm
Visibility:10 or more sm (16+ km)
Ceiling:at least 12,000 feet AGL
Clouds:sky clear below 12,000 feet AGL
QC Flag:automated observation with no human augmentation
Text:KHLB 081055Z AUTO 00000KT 10SM CLR 01/01 A3010 RMK A01
Temperature: 1.0°C ( 34°F)
Dewpoint: 1.0°C ( 34°F) [RH = 100%]
Pressure (altimeter):30.10 inches Hg (1019.4 mb)
Winds:calm
Visibility:10 or more sm (16+ km)
Ceiling:at least 12,000 feet AGL
Clouds:sky clear below 12,000 feet AGL
QC Flag:automated observation with no human augmentation
Text:KHLB 081035Z AUTO 00000KT 10SM CLR 01/01 A3009 RMK A01
Temperature: 1.0°C ( 34°F)
Dewpoint: 1.0°C ( 34°F) [RH = 100%]
Pressure (altimeter):30.09 inches Hg (1019.0 mb)
Winds:calm
Visibility:10 or more sm (16+ km)
Ceiling:at least 12,000 feet AGL
Clouds:sky clear below 12,000 feet AGL
QC Flag:automated observation with no human augmentation
Text:KHLB 081015Z AUTO 00000KT 10SM CLR 02/02 A3008 RMK A01
Temperature: 2.0°C ( 36°F)
Dewpoint: 2.0°C ( 36°F) [RH = 100%]
Pressure (altimeter):30.08 inches Hg (1018.7 mb)
Winds:calm
Visibility:10 or more sm (16+ km)
Ceiling:at least 12,000 feet AGL
Clouds:sky clear below 12,000 feet AGL
QC Flag:automated observation with no human augmentation
Text:KHLB 080955Z AUTO 00000KT 10SM CLR 01/01 A3008 RMK A01
Temperature: 1.0°C ( 34°F)
Dewpoint: 1.0°C ( 34°F) [RH = 100%]
Pressure (altimeter):30.08 inches Hg (1018.7 mb)
Winds:calm
Visibility:10 or more sm (16+ km)
Ceiling:at least 12,000 feet AGL
Clouds:sky clear below 12,000 feet AGL
QC Flag:automated observation with no human augmentation
Text:KHLB 080935Z AUTO 00000KT 10SM CLR 02/02 A3008 RMK A01
Temperature: 2.0°C ( 36°F)
Dewpoint: 2.0°C ( 36°F) [RH = 100%]
Pressure (altimeter):30.08 inches Hg (1018.7 mb)
Winds:calm
Visibility:10 or more sm (16+ km)
Ceiling:at least 12,000 feet AGL
Clouds:sky clear below 12,000 feet AGL
QC Flag:automated observation with no human augmentation
Text:KHLB 080915Z AUTO 00000KT 10SM CLR 01/01 A3007 RMK A01
Temperature: 1.0°C ( 34°F)
Dewpoint: 1.0°C ( 34°F) [RH = 100%]
Pressure (altimeter):30.07 inches Hg (1018.4 mb)
Winds:calm
Visibility:10 or more sm (16+ km)
Ceiling:at least 12,000 feet AGL
Clouds:sky clear below 12,000 feet AGL
QC Flag:automated observation with no human augmentation
Text:KHLB 080855Z AUTO 00000KT 10SM CLR 01/01 A3006 RMK A01
Temperature: 1.0°C ( 34°F)
Dewpoint: 1.0°C ( 34°F) [RH = 100%]
Pressure (altimeter):30.06 inches Hg (1018.0 mb)
Winds:calm
Visibility:10 or more sm (16+ km)
Ceiling:at least 12,000 feet AGL
Clouds:sky clear below 12,000 feet AGL
QC Flag:automated observation with no human augmentation
Text:KHLB 080835Z AUTO 00000KT 10SM CLR 02/01 A3005 RMK A01
Temperature: 2.0°C ( 36°F)
Dewpoint: 1.0°C ( 34°F) [RH = 93%]
Pressure (altimeter):30.05 inches Hg (1017.7 mb)
Winds:calm
Visibility:10 or more sm (16+ km)
Ceiling:at least 12,000 feet AGL
Clouds:sky clear below 12,000 feet AGL
QC Flag:automated observation with no human augmentation
Text:KHLB 080815Z AUTO 00000KT 10SM CLR 02/02 A3005 RMK A01
Temperature: 2.0°C ( 36°F)
Dewpoint: 2.0°C ( 36°F) [RH = 100%]
Pressure (altimeter):30.05 inches Hg (1017.7 mb)
Winds:calm
Visibility:10 or more sm (16+ km)
Ceiling:at least 12,000 feet AGL
Clouds:sky clear below 12,000 feet AGL
QC Flag:automated observation with no human augmentation
Text:KHLB 080755Z AUTO 00000KT 10SM CLR 02/02 A3005 RMK A01
Temperature: 2.0°C ( 36°F)
Dewpoint: 2.0°C ( 36°F) [RH = 100%]
Pressure (altimeter):30.05 inches Hg (1017.7 mb)
Winds:calm
Visibility:10 or more sm (16+ km)
Ceiling:at least 12,000 feet AGL
Clouds:sky clear below 12,000 feet AGL
QC Flag:automated observation with no human augmentation
Text:KHLB 080735Z AUTO 00000KT 10SM CLR 02/02 A3004 RMK A01
Temperature: 2.0°C ( 36°F)
Dewpoint: 2.0°C ( 36°F) [RH = 100%]
Pressure (altimeter):30.04 inches Hg (1017.4 mb)
Winds:calm
Visibility:10 or more sm (16+ km)
Ceiling:at least 12,000 feet AGL
Clouds:sky clear below 12,000 feet AGL
QC Flag:automated observation with no human augmentation
Text:KHLB 080715Z AUTO 00000KT 10SM CLR 02/02 A3004 RMK A01
Temperature: 2.0°C ( 36°F)
Dewpoint: 2.0°C ( 36°F) [RH = 100%]
Pressure (altimeter):30.04 inches Hg (1017.4 mb)
Winds:calm
Visibility:10 or more sm (16+ km)
Ceiling:at least 12,000 feet AGL
Clouds:sky clear below 12,000 feet AGL
QC Flag:automated observation with no human augmentation
Text:KHLB 080655Z AUTO 00000KT 10SM CLR 03/03 A3004 RMK A01
Temperature: 3.0°C ( 37°F)
Dewpoint: 3.0°C ( 37°F) [RH = 100%]
Pressure (altimeter):30.04 inches Hg (1017.4 mb)
Winds:calm
Visibility:10 or more sm (16+ km)
Ceiling:at least 12,000 feet AGL
Clouds:sky clear below 12,000 feet AGL
QC Flag:automated observation with no human augmentation
Text:KHLB 080635Z AUTO 00000KT 10SM CLR 03/03 A3003 RMK A01
Temperature: 3.0°C ( 37°F)
Dewpoint: 3.0°C ( 37°F) [RH = 100%]
Pressure (altimeter):30.03 inches Hg (1017.0 mb)
Winds:calm
Visibility:10 or more sm (16+ km)
Ceiling:at least 12,000 feet AGL
Clouds:sky clear below 12,000 feet AGL
QC Flag:automated observation with no human augmentation
Text:KHLB 080615Z AUTO 00000KT 10SM CLR 04/04 A3003 RMK A01
Temperature: 4.0°C ( 39°F)
Dewpoint: 4.0°C ( 39°F) [RH = 100%]
Pressure (altimeter):30.03 inches Hg (1017.0 mb)
Winds:calm
Visibility:10 or more sm (16+ km)
Ceiling:at least 12,000 feet AGL
Clouds:sky clear below 12,000 feet AGL
QC Flag:automated observation with no human augmentation
Text:KHLB 080555Z AUTO 00000KT 10SM CLR 05/03 A3003 RMK A01
Temperature: 5.0°C ( 41°F)
Dewpoint: 3.0°C ( 37°F) [RH = 87%]
Pressure (altimeter):30.03 inches Hg (1017.0 mb)
Winds:calm
Visibility:10 or more sm (16+ km)
Ceiling:at least 12,000 feet AGL
Clouds:sky clear below 12,000 feet AGL
QC Flag:automated observation with no human augmentation
Text:KHLB 080535Z AUTO VRB05KT 10SM CLR 05/04 A3002 RMK A01
Temperature: 5.0°C ( 41°F)
Dewpoint: 4.0°C ( 39°F) [RH = 93%]
Pressure (altimeter):30.02 inches Hg (1016.7 mb)
Winds:variable direction winds at 6 MPH (5 knots; 2.6 m/s)
Visibility:10 or more sm (16+ km)
Ceiling:at least 12,000 feet AGL
Clouds:sky clear below 12,000 feet AGL
QC Flag:automated observation with no human augmentation
Text:KHLB 080515Z AUTO 29003KT 10SM CLR 05/04 A3002 RMK A01
Temperature: 5.0°C ( 41°F)
Dewpoint: 4.0°C ( 39°F) [RH = 93%]
Pressure (altimeter):30.02 inches Hg (1016.7 mb)
Winds:from the WNW (290 degrees) at 3 MPH (3 knots; 1.5 m/s)
Visibility:10 or more sm (16+ km)
Ceiling:at least 12,000 feet AGL
Clouds:sky clear below 12,000 feet AGL
QC Flag:automated observation with no human augmentation
Text:KHLB 080455Z AUTO 00000KT 10SM CLR 06/02 A3002 RMK A01
Temperature: 6.0°C ( 43°F)
Dewpoint: 2.0°C ( 36°F) [RH = 75%]
Pressure (altimeter):30.02 inches Hg (1016.7 mb)
Winds:calm
Visibility:10 or more sm (16+ km)
Ceiling:at least 12,000 feet AGL
Clouds:sky clear below 12,000 feet AGL
QC Flag:automated observation with no human augmentation
Text:KHLB 080435Z AUTO VRB05KT 10SM CLR 07/03 A3002 RMK A01
Temperature: 7.0°C ( 45°F)
Dewpoint: 3.0°C ( 37°F) [RH = 76%]
Pressure (altimeter):30.02 inches Hg (1016.7 mb)
Winds:variable direction winds at 6 MPH (5 knots; 2.6 m/s)
Visibility:10 or more sm (16+ km)
Ceiling:at least 12,000 feet AGL
Clouds:sky clear below 12,000 feet AGL
QC Flag:automated observation with no human augmentation
Text:KHLB 080415Z AUTO VRB03KT 10SM CLR 07/06 A3001 RMK A01
Temperature: 7.0°C ( 45°F)
Dewpoint: 6.0°C ( 43°F) [RH = 93%]
Pressure (altimeter):30.01 inches Hg (1016.3 mb)
Winds:variable direction winds at 3 MPH (3 knots; 1.5 m/s)
Visibility:10 or more sm (16+ km)
Ceiling:at least 12,000 feet AGL
Clouds:sky clear below 12,000 feet AGL
QC Flag:automated observation with no human augmentation
Text:KHLB 080355Z AUTO 00000KT 10SM FEW050 FEW055 08/04 A3002 RMK A01
Temperature: 8.0°C ( 46°F)
Dewpoint: 4.0°C ( 39°F) [RH = 76%]
Pressure (altimeter):30.02 inches Hg (1016.7 mb)
Winds:calm
Visibility:10 or more sm (16+ km)
Ceiling:at least 12,000 feet AGL
Clouds: few clouds at 5000 feet AGL, few clouds at 5500 feet AGL
QC Flag:automated observation with no human augmentation
Text:KHLB 080335Z AUTO VRB04KT 10SM BKN050 BKN055 BKN070 08/05 A3001 RMK A01
Temperature: 8.0°C ( 46°F)
Dewpoint: 5.0°C ( 41°F) [RH = 81%]
Pressure (altimeter):30.01 inches Hg (1016.3 mb)
Winds:variable direction winds at 5 MPH (4 knots; 2.1 m/s)
Visibility:10 or more sm (16+ km)
Ceiling:5000 feet AGL
Clouds: broken clouds at 5000 feet AGL, broken clouds at 5500 feet AGL, broken clouds at 7000 feet AGL
QC Flag:automated observation with no human augmentation
Text:KHLB 080315Z AUTO 35004KT 10SM SCT046 OVC050 09/06 A3001 RMK A01
Temperature: 9.0°C ( 48°F)
Dewpoint: 6.0°C ( 43°F) [RH = 81%]
Pressure (altimeter):30.01 inches Hg (1016.3 mb)
Winds:from the N (350 degrees) at 5 MPH (4 knots; 2.1 m/s)
Visibility:10 or more sm (16+ km)
Ceiling:5000 feet AGL
Clouds: scattered clouds at 4600 feet AGL, overcast cloud deck at 5000 feet AGL
QC Flag:automated observation with no human augmentation
Text:KHLB 080255Z AUTO VRB03G10KT 10SM BKN039 OVC045 09/07 A3000 RMK A01
Temperature: 9.0°C ( 48°F)
Dewpoint: 7.0°C ( 45°F) [RH = 87%]
Pressure (altimeter):30.00 inches Hg (1016.0 mb)
Winds:variable direction winds at 3 MPH (3 knots; 1.5 m/s) gusting to 12 MPH (10 knots; 5.1 m/s)
Visibility:10 or more sm (16+ km)
Ceiling:3900 feet AGL
Clouds: broken clouds at 3900 feet AGL, overcast cloud deck at 4500 feet AGL
QC Flag:automated observation with no human augmentation
Text:KHLB 080235Z AUTO 35007G12KT 10SM BKN038 OVC046 09/08 A2999 RMK A01
Temperature: 9.0°C ( 48°F)
Dewpoint: 8.0°C ( 46°F) [RH = 93%]
Pressure (altimeter):29.99 inches Hg (1015.7 mb)
Winds:from the N (350 degrees) at 8 MPH (7 knots; 3.6 m/s) gusting to 14 MPH (12 knots; 6.2 m/s)
Visibility:10 or more sm (16+ km)
Ceiling:3800 feet AGL
Clouds: broken clouds at 3800 feet AGL, overcast cloud deck at 4600 feet AGL
QC Flag:automated observation with no human augmentation
Text:KHLB 080215Z AUTO VRB04G10KT 10SM FEW028 BKN036 OVC048 10/10 A2998 RMK A01
Temperature: 10.0°C ( 50°F)
Dewpoint: 10.0°C ( 50°F) [RH = 100%]
Pressure (altimeter):29.98 inches Hg (1015.3 mb)
Winds:variable direction winds at 5 MPH (4 knots; 2.1 m/s) gusting to 12 MPH (10 knots; 5.1 m/s)
Visibility:10 or more sm (16+ km)
Ceiling:3600 feet AGL
Clouds: few clouds at 2800 feet AGL, broken clouds at 3600 feet AGL, overcast cloud deck at 4800 feet AGL
QC Flag:automated observation with no human augmentation
Text:KHLB 080155Z AUTO VRB03KT 10SM FEW033 BKN045 OVC075 09/09 A2997 RMK A01
Temperature: 9.0°C ( 48°F)
Dewpoint: 9.0°C ( 48°F) [RH = 100%]
Pressure (altimeter):29.97 inches Hg (1015.0 mb)
Winds:variable direction winds at 3 MPH (3 knots; 1.5 m/s)
Visibility:10 or more sm (16+ km)
Ceiling:4500 feet AGL
Clouds: few clouds at 3300 feet AGL, broken clouds at 4500 feet AGL, overcast cloud deck at 7500 feet AGL
QC Flag:automated observation with no human augmentation
Text:KHLB 080135Z AUTO VRB03KT 10SM BKN043 BKN050 OVC080 09/09 A2995 RMK A01
Temperature: 9.0°C ( 48°F)
Dewpoint: 9.0°C ( 48°F) [RH = 100%]
Pressure (altimeter):29.95 inches Hg (1014.3 mb)
Winds:variable direction winds at 3 MPH (3 knots; 1.5 m/s)
Visibility:10 or more sm (16+ km)
Ceiling:4300 feet AGL
Clouds: broken clouds at 4300 feet AGL, broken clouds at 5000 feet AGL, overcast cloud deck at 8000 feet AGL
QC Flag:automated observation with no human augmentation
Text:KHLB 080115Z AUTO 34004KT 9SM FEW043 SCT049 BKN060 09/09 A2994 RMK A01
Temperature: 9.0°C ( 48°F)
Dewpoint: 9.0°C ( 48°F) [RH = 100%]
Pressure (altimeter):29.94 inches Hg (1014.0 mb)
Winds:from the NNW (340 degrees) at 5 MPH (4 knots; 2.1 m/s)
Visibility: 9 sm ( 14 km)
Ceiling:6000 feet AGL
Clouds: few clouds at 4300 feet AGL, scattered clouds at 4900 feet AGL, broken clouds at 6000 feet AGL
QC Flag:automated observation with no human augmentation
Text:KHLB 080055Z AUTO 00000KT 10SM FEW055 SCT065 SCT075 09/09 A2993 RMK A01
Temperature: 9.0°C ( 48°F)
Dewpoint: 9.0°C ( 48°F) [RH = 100%]
Pressure (altimeter):29.93 inches Hg (1013.6 mb)
Winds:calm
Visibility:10 or more sm (16+ km)
Ceiling:at least 12,000 feet AGL
Clouds: few clouds at 5500 feet AGL, scattered clouds at 6500 feet AGL, scattered clouds at 7500 feet AGL
QC Flag:automated observation with no human augmentation
Text:KHLB 080035Z AUTO 00000KT 9SM FEW032 SCT048 BKN065 09/09 A2992 RMK A01
Temperature: 9.0°C ( 48°F)
Dewpoint: 9.0°C ( 48°F) [RH = 100%]
Pressure (altimeter):29.92 inches Hg (1013.3 mb)
Winds:calm
Visibility: 9 sm ( 14 km)
Ceiling:6500 feet AGL
Clouds: few clouds at 3200 feet AGL, scattered clouds at 4800 feet AGL, broken clouds at 6500 feet AGL
QC Flag:automated observation with no human augmentation
Text:KHLB 080015Z AUTO 00000KT 3SM BR FEW028 BKN049 OVC060 10/10 A2994 RMK A01
Temperature: 10.0°C ( 50°F)
Dewpoint: 10.0°C ( 50°F) [RH = 100%]
Pressure (altimeter):29.94 inches Hg (1014.0 mb)
Winds:calm
Visibility: 3 sm ( 5 km)
Ceiling:4900 feet AGL
Clouds: few clouds at 2800 feet AGL, broken clouds at 4900 feet AGL, overcast cloud deck at 6000 feet AGL
Weather:BR (mist)
QC Flag:automated observation with no human augmentation
Text:KHLB 072355Z AUTO 00000KT 10SM BKN060 BKN070 BKN110 10/10 A2993 RMK A01
Temperature: 10.0°C ( 50°F)
Dewpoint: 10.0°C ( 50°F) [RH = 100%]
Pressure (altimeter):29.93 inches Hg (1013.6 mb)
Winds:calm
Visibility:10 or more sm (16+ km)
Ceiling:6000 feet AGL
Clouds: broken clouds at 6000 feet AGL, broken clouds at 7000 feet AGL, broken clouds at 11000 feet AGL
QC Flag:automated observation with no human augmentation
Text:KHLB 072335Z AUTO 00000KT 10SM BKN065 BKN075 BKN095 11/10 A2992 RMK A01
Temperature: 11.0°C ( 52°F)
Dewpoint: 10.0°C ( 50°F) [RH = 94%]
Pressure (altimeter):29.92 inches Hg (1013.3 mb)
Winds:calm
Visibility:10 or more sm (16+ km)
Ceiling:6500 feet AGL
Clouds: broken clouds at 6500 feet AGL, broken clouds at 7500 feet AGL, broken clouds at 9500 feet AGL
QC Flag:automated observation with no human augmentation
Text:KHLB 072315Z AUTO 00000KT 10SM FEW047 FEW060 SCT070 10/10 A2993 RMK A01
Temperature: 10.0°C ( 50°F)
Dewpoint: 10.0°C ( 50°F) [RH = 100%]
Pressure (altimeter):29.93 inches Hg (1013.6 mb)
Winds:calm
Visibility:10 or more sm (16+ km)
Ceiling:at least 12,000 feet AGL
Clouds: few clouds at 4700 feet AGL, few clouds at 6000 feet AGL, scattered clouds at 7000 feet AGL
QC Flag:automated observation with no human augmentation
Text:KHLB 072255Z AUTO 00000KT 7SM FEW039 SCT050 BKN065 10/10 A2995 RMK A01
Temperature: 10.0°C ( 50°F)
Dewpoint: 10.0°C ( 50°F) [RH = 100%]
Pressure (altimeter):29.95 inches Hg (1014.3 mb)
Winds:calm
Visibility: 7 sm ( 11 km)
Ceiling:6500 feet AGL
Clouds: few clouds at 3900 feet AGL, scattered clouds at 5000 feet AGL, broken clouds at 6500 feet AGL
QC Flag:automated observation with no human augmentation
Text:KHLB 072235Z AUTO VRB04KT 2SM BR FEW028 SCT037 BKN044 11/10 A2995 RMK A01
Temperature: 11.0°C ( 52°F)
Dewpoint: 10.0°C ( 50°F) [RH = 94%]
Pressure (altimeter):29.95 inches Hg (1014.3 mb)
Winds:variable direction winds at 5 MPH (4 knots; 2.1 m/s)
Visibility: 2.00 sm ( 3.22 km)
Ceiling:4400 feet AGL
Clouds: few clouds at 2800 feet AGL, scattered clouds at 3700 feet AGL, broken clouds at 4400 feet AGL
Weather:BR (mist)
QC Flag:automated observation with no human augmentation
Text:KHLB 072215Z AUTO 29003KT 10SM SCT055 BKN065 BKN080 11/10 A2997 RMK A01
Temperature: 11.0°C ( 52°F)
Dewpoint: 10.0°C ( 50°F) [RH = 94%]
Pressure (altimeter):29.97 inches Hg (1015.0 mb)
Winds:from the WNW (290 degrees) at 3 MPH (3 knots; 1.5 m/s)
Visibility:10 or more sm (16+ km)
Ceiling:6500 feet AGL
Clouds: scattered clouds at 5500 feet AGL, broken clouds at 6500 feet AGL, broken clouds at 8000 feet AGL
QC Flag:automated observation with no human augmentation
Text:KHLB 072155Z AUTO VRB05G11KT 5SM HZ FEW031 BKN060 SCT075 11/08 A2996 RMK A01
Temperature: 11.0°C ( 52°F)
Dewpoint: 8.0°C ( 46°F) [RH = 82%]
Pressure (altimeter):29.96 inches Hg (1014.6 mb)
Winds:variable direction winds at 6 MPH (5 knots; 2.6 m/s) gusting to 13 MPH (11 knots; 5.7 m/s)
Visibility: 5 sm ( 8 km)
Ceiling:6000 feet AGL
Clouds: few clouds at 3100 feet AGL, broken clouds at 6000 feet AGL, scattered clouds at 7500 feet AGL
Weather:HZ (haze)
QC Flag:automated observation with no human augmentation
Text:KHLB 072135Z AUTO VRB06G14KT 190V300 10SM BKN060 15/03 A2996 RMK A01
Temperature: 15.0°C ( 59°F)
Dewpoint: 3.0°C ( 37°F) [RH = 44%]
Pressure (altimeter):29.96 inches Hg (1014.6 mb)
Winds:variable direction winds at 7 MPH (6 knots; 3.1 m/s) gusting to 16 MPH (14 knots; 7.2 m/s)
Visibility:10 or more sm (16+ km)
Ceiling:6000 feet AGL
Clouds: broken clouds at 6000 feet AGL
QC Flag:automated observation with no human augmentation
Text:KHLB 072115Z AUTO 19006G11KT 10SM FEW060 FEW095 FEW110 15/04 A2993 RMK A01
Temperature: 15.0°C ( 59°F)
Dewpoint: 4.0°C ( 39°F) [RH = 48%]
Pressure (altimeter):29.93 inches Hg (1013.6 mb)
Winds:from the S (190 degrees) at 7 MPH (6 knots; 3.1 m/s) gusting to 13 MPH (11 knots; 5.7 m/s)
Visibility:10 or more sm (16+ km)
Ceiling:at least 12,000 feet AGL
Clouds: few clouds at 6000 feet AGL, few clouds at 9500 feet AGL, few clouds at 11000 feet AGL
QC Flag:automated observation with no human augmentation
Text:KHLB 072055Z AUTO VRB03G11KT 10SM FEW090 15/04 A2995 RMK A01
Temperature: 15.0°C ( 59°F)
Dewpoint: 4.0°C ( 39°F) [RH = 48%]
Pressure (altimeter):29.95 inches Hg (1014.3 mb)
Winds:variable direction winds at 3 MPH (3 knots; 1.5 m/s) gusting to 13 MPH (11 knots; 5.7 m/s)
Visibility:10 or more sm (16+ km)
Ceiling:at least 12,000 feet AGL
Clouds: few clouds at 9000 feet AGL
QC Flag:automated observation with no human augmentation
Text:KHLB 072035Z AUTO 19004G14KT 10SM CLR 15/04 A2995 RMK A01
Temperature: 15.0°C ( 59°F)
Dewpoint: 4.0°C ( 39°F) [RH = 48%]
Pressure (altimeter):29.95 inches Hg (1014.3 mb)
Winds:from the S (190 degrees) at 5 MPH (4 knots; 2.1 m/s) gusting to 16 MPH (14 knots; 7.2 m/s)
Visibility:10 or more sm (16+ km)
Ceiling:at least 12,000 feet AGL
Clouds:sky clear below 12,000 feet AGL
QC Flag:automated observation with no human augmentation
Text:KHLB 072015Z AUTO VRB03G12KT 10SM FEW080 15/05 A2997 RMK A01
Temperature: 15.0°C ( 59°F)
Dewpoint: 5.0°C ( 41°F) [RH = 51%]
Pressure (altimeter):29.97 inches Hg (1015.0 mb)
Winds:variable direction winds at 3 MPH (3 knots; 1.5 m/s) gusting to 14 MPH (12 knots; 6.2 m/s)
Visibility:10 or more sm (16+ km)
Ceiling:at least 12,000 feet AGL
Clouds: few clouds at 8000 feet AGL
QC Flag:automated observation with no human augmentation
Text:KHLB 071955Z AUTO VRB06G17KT 10SM FEW060 FEW090 15/03 A2998 RMK A01
Temperature: 15.0°C ( 59°F)
Dewpoint: 3.0°C ( 37°F) [RH = 44%]
Pressure (altimeter):29.98 inches Hg (1015.3 mb)
Winds:variable direction winds at 7 MPH (6 knots; 3.1 m/s) gusting to 20 MPH (17 knots; 8.7 m/s)
Visibility:10 or more sm (16+ km)
Ceiling:at least 12,000 feet AGL
Clouds: few clouds at 6000 feet AGL, few clouds at 9000 feet AGL
QC Flag:automated observation with no human augmentation
Text:KHLB 071935Z AUTO VRB05G12KT 10SM FEW060 SCT075 SCT085 15/02 A2998 RMK A01
Temperature: 15.0°C ( 59°F)
Dewpoint: 2.0°C ( 36°F) [RH = 41%]
Pressure (altimeter):29.98 inches Hg (1015.3 mb)
Winds:variable direction winds at 6 MPH (5 knots; 2.6 m/s) gusting to 14 MPH (12 knots; 6.2 m/s)
Visibility:10 or more sm (16+ km)
Ceiling:at least 12,000 feet AGL
Clouds: few clouds at 6000 feet AGL, scattered clouds at 7500 feet AGL, scattered clouds at 8500 feet AGL
QC Flag:automated observation with no human augmentation
Text:KHLB 071915Z AUTO VRB07G12KT 220V330 10SM FEW070 SCT080 16/02 A2999 RMK A01
Temperature: 16.0°C ( 61°F)
Dewpoint: 2.0°C ( 36°F) [RH = 39%]
Pressure (altimeter):29.99 inches Hg (1015.7 mb)
Winds:variable direction winds at 8 MPH (7 knots; 3.6 m/s) gusting to 14 MPH (12 knots; 6.2 m/s)
Visibility:10 or more sm (16+ km)
Ceiling:at least 12,000 feet AGL
Clouds: few clouds at 7000 feet AGL, scattered clouds at 8000 feet AGL
QC Flag:automated observation with no human augmentation
Text:KHLB 071855Z AUTO VRB06G11KT 10SM BKN065 BKN075 BKN090 15/02 A3000 RMK A01 P0001
Temperature: 15.0°C ( 59°F)
Dewpoint: 2.0°C ( 36°F) [RH = 41%]
Pressure (altimeter):30.00 inches Hg (1016.0 mb)
Winds:variable direction winds at 7 MPH (6 knots; 3.1 m/s) gusting to 13 MPH (11 knots; 5.7 m/s)
Visibility:10 or more sm (16+ km)
Ceiling:6500 feet AGL
Clouds: broken clouds at 6500 feet AGL, broken clouds at 7500 feet AGL, broken clouds at 9000 feet AGL
QC Flag:automated observation with no human augmentation
Text:KHLB 071835Z AUTO 31007G16KT 280V340 10SM FEW070 SCT120 16/02 A3001 RMK A01
Temperature: 16.0°C ( 61°F)
Dewpoint: 2.0°C ( 36°F) [RH = 39%]
Pressure (altimeter):30.01 inches Hg (1016.3 mb)
Winds:from the NW (310 degrees) at 8 MPH (7 knots; 3.6 m/s) gusting to 18 MPH (16 knots; 8.2 m/s)
Visibility:10 or more sm (16+ km)
Ceiling:at least 12,000 feet AGL
Clouds: few clouds at 7000 feet AGL, scattered clouds at 12000 feet AGL
QC Flag:automated observation with no human augmentation
Text:KHLB 071815Z AUTO VRB04G12KT 10SM FEW055 FEW085 SCT120 15/02 A3001 RMK A01
Temperature: 15.0°C ( 59°F)
Dewpoint: 2.0°C ( 36°F) [RH = 41%]
Pressure (altimeter):30.01 inches Hg (1016.3 mb)
Winds:variable direction winds at 5 MPH (4 knots; 2.1 m/s) gusting to 14 MPH (12 knots; 6.2 m/s)
Visibility:10 or more sm (16+ km)
Ceiling:at least 12,000 feet AGL
Clouds: few clouds at 5500 feet AGL, few clouds at 8500 feet AGL, scattered clouds at 12000 feet AGL
QC Flag:automated observation with no human augmentation
Text:KHLB 071755Z AUTO 28007G12KT 240V310 10SM FEW050 FEW060 15/03 A3002 RMK A01
Temperature: 15.0°C ( 59°F)
Dewpoint: 3.0°C ( 37°F) [RH = 44%]
Pressure (altimeter):30.02 inches Hg (1016.7 mb)
Winds:from the W (280 degrees) at 8 MPH (7 knots; 3.6 m/s) gusting to 14 MPH (12 knots; 6.2 m/s)
Visibility:10 or more sm (16+ km)
Ceiling:at least 12,000 feet AGL
Clouds: few clouds at 5000 feet AGL, few clouds at 6000 feet AGL
QC Flag:automated observation with no human augmentation
Text:KHLB 071735Z AUTO VRB04G11KT 10SM SCT047 15/04 A3003 RMK A01
Temperature: 15.0°C ( 59°F)
Dewpoint: 4.0°C ( 39°F) [RH = 48%]
Pressure (altimeter):30.03 inches Hg (1017.0 mb)
Winds:variable direction winds at 5 MPH (4 knots; 2.1 m/s) gusting to 13 MPH (11 knots; 5.7 m/s)
Visibility:10 or more sm (16+ km)
Ceiling:at least 12,000 feet AGL
Clouds: scattered clouds at 4700 feet AGL
QC Flag:automated observation with no human augmentation
Text:KHLB 071715Z AUTO VRB06G17KT 10SM FEW045 14/04 A3004 RMK A01
Temperature: 14.0°C ( 57°F)
Dewpoint: 4.0°C ( 39°F) [RH = 51%]
Pressure (altimeter):30.04 inches Hg (1017.4 mb)
Winds:variable direction winds at 7 MPH (6 knots; 3.1 m/s) gusting to 20 MPH (17 knots; 8.7 m/s)
Visibility:10 or more sm (16+ km)
Ceiling:at least 12,000 feet AGL
Clouds: few clouds at 4500 feet AGL
QC Flag:automated observation with no human augmentation
Text:KHLB 071655Z AUTO 29008KT 230V320 10SM FEW044 14/05 A3005 RMK A01
Temperature: 14.0°C ( 57°F)
Dewpoint: 5.0°C ( 41°F) [RH = 55%]
Pressure (altimeter):30.05 inches Hg (1017.7 mb)
Winds:from the WNW (290 degrees) at 9 MPH (8 knots; 4.1 m/s)
Visibility:10 or more sm (16+ km)
Ceiling:at least 12,000 feet AGL
Clouds: few clouds at 4400 feet AGL
QC Flag:automated observation with no human augmentation
Text:KHLB 071635Z AUTO VRB04G13KT 10SM CLR 14/04 A3005 RMK A01
Temperature: 14.0°C ( 57°F)
Dewpoint: 4.0°C ( 39°F) [RH = 51%]
Pressure (altimeter):30.05 inches Hg (1017.7 mb)
Winds:variable direction winds at 5 MPH (4 knots; 2.1 m/s) gusting to 15 MPH (13 knots; 6.7 m/s)
Visibility:10 or more sm (16+ km)
Ceiling:at least 12,000 feet AGL
Clouds:sky clear below 12,000 feet AGL
QC Flag:automated observation with no human augmentation
Text:KHLB 071615Z AUTO VRB06G16KT 10SM FEW041 14/05 A3005 RMK A01
Temperature: 14.0°C ( 57°F)
Dewpoint: 5.0°C ( 41°F) [RH = 55%]
Pressure (altimeter):30.05 inches Hg (1017.7 mb)
Winds:variable direction winds at 7 MPH (6 knots; 3.1 m/s) gusting to 18 MPH (16 knots; 8.2 m/s)
Visibility:10 or more sm (16+ km)
Ceiling:at least 12,000 feet AGL
Clouds: few clouds at 4100 feet AGL
QC Flag:automated observation with no human augmentation
Text:KHLB 071555Z AUTO 28008KT 180V320 10SM FEW038 13/04 A3006 RMK A01
Temperature: 13.0°C ( 55°F)
Dewpoint: 4.0°C ( 39°F) [RH = 54%]
Pressure (altimeter):30.06 inches Hg (1018.0 mb)
Winds:from the W (280 degrees) at 9 MPH (8 knots; 4.1 m/s)
Visibility:10 or more sm (16+ km)
Ceiling:at least 12,000 feet AGL
Clouds: few clouds at 3800 feet AGL
QC Flag:automated observation with no human augmentation
Text:KHLB 071535Z AUTO 25009KT 10SM SCT037 12/05 A3005 RMK A01
Temperature: 12.0°C ( 54°F)
Dewpoint: 5.0°C ( 41°F) [RH = 62%]
Pressure (altimeter):30.05 inches Hg (1017.7 mb)
Winds:from the WSW (250 degrees) at 10 MPH (9 knots; 4.6 m/s)
Visibility:10 or more sm (16+ km)
Ceiling:at least 12,000 feet AGL
Clouds: scattered clouds at 3700 feet AGL
QC Flag:automated observation with no human augmentation
Text:KHLB 071515Z AUTO VRB05KT 10SM CLR 12/05 A3005 RMK A01
Temperature: 12.0°C ( 54°F)
Dewpoint: 5.0°C ( 41°F) [RH = 62%]
Pressure (altimeter):30.05 inches Hg (1017.7 mb)
Winds:variable direction winds at 6 MPH (5 knots; 2.6 m/s)
Visibility:10 or more sm (16+ km)
Ceiling:at least 12,000 feet AGL
Clouds:sky clear below 12,000 feet AGL
QC Flag:automated observation with no human augmentation
Text:KHLB 071455Z AUTO VRB04KT 10SM CLR 12/06 A3005 RMK A01
Temperature: 12.0°C ( 54°F)
Dewpoint: 6.0°C ( 43°F) [RH = 67%]
Pressure (altimeter):30.05 inches Hg (1017.7 mb)
Winds:variable direction winds at 5 MPH (4 knots; 2.1 m/s)
Visibility:10 or more sm (16+ km)
Ceiling:at least 12,000 feet AGL
Clouds:sky clear below 12,000 feet AGL
QC Flag:automated observation with no human augmentation
Text:KHLB 071435Z AUTO VRB05KT 10SM CLR 11/06 A3005 RMK A01
Temperature: 11.0°C ( 52°F)
Dewpoint: 6.0°C ( 43°F) [RH = 71%]
Pressure (altimeter):30.05 inches Hg (1017.7 mb)
Winds:variable direction winds at 6 MPH (5 knots; 2.6 m/s)
Visibility:10 or more sm (16+ km)
Ceiling:at least 12,000 feet AGL
Clouds:sky clear below 12,000 feet AGL
QC Flag:automated observation with no human augmentation
Text:KHLB 071415Z AUTO 00000KT 10SM CLR 10/07 A3005 RMK A01
Temperature: 10.0°C ( 50°F)
Dewpoint: 7.0°C ( 45°F) [RH = 82%]
Pressure (altimeter):30.05 inches Hg (1017.7 mb)
Winds:calm
Visibility:10 or more sm (16+ km)
Ceiling:at least 12,000 feet AGL
Clouds:sky clear below 12,000 feet AGL
QC Flag:automated observation with no human augmentation
Text:KHLB 071355Z AUTO 29004KT 10SM FEW055 09/07 A3005 RMK A01
Temperature: 9.0°C ( 48°F)
Dewpoint: 7.0°C ( 45°F) [RH = 87%]
Pressure (altimeter):30.05 inches Hg (1017.7 mb)
Winds:from the WNW (290 degrees) at 5 MPH (4 knots; 2.1 m/s)
Visibility:10 or more sm (16+ km)
Ceiling:at least 12,000 feet AGL
Clouds: few clouds at 5500 feet AGL
QC Flag:automated observation with no human augmentation
Text:KHLB 071335Z AUTO 00000KT 10SM FEW055 07/07 A3005 RMK A01
Temperature: 7.0°C ( 45°F)
Dewpoint: 7.0°C ( 45°F) [RH = 100%]
Pressure (altimeter):30.05 inches Hg (1017.7 mb)
Winds:calm
Visibility:10 or more sm (16+ km)
Ceiling:at least 12,000 feet AGL
Clouds: few clouds at 5500 feet AGL
QC Flag:automated observation with no human augmentation
Text:KHLB 071315Z AUTO VRB03KT 8SM SCT055 SCT060 06/06 A3006 RMK A01
Temperature: 6.0°C ( 43°F)
Dewpoint: 6.0°C ( 43°F) [RH = 100%]
Pressure (altimeter):30.06 inches Hg (1018.0 mb)
Winds:variable direction winds at 3 MPH (3 knots; 1.5 m/s)
Visibility: 8 sm ( 13 km)
Ceiling:at least 12,000 feet AGL
Clouds: scattered clouds at 5500 feet AGL, scattered clouds at 6000 feet AGL
QC Flag:automated observation with no human augmentation
Text:KHLB 071255Z AUTO 00000KT 6SM BR BKN008 BKN055 OVC065 06/06 A3006 RMK A01
Temperature: 6.0°C ( 43°F)
Dewpoint: 6.0°C ( 43°F) [RH = 100%]
Pressure (altimeter):30.06 inches Hg (1018.0 mb)
Winds:calm
Visibility: 6 sm ( 10 km)
Ceiling:800 feet AGL
Clouds: broken clouds at 800 feet AGL, broken clouds at 5500 feet AGL, overcast cloud deck at 6500 feet AGL
Weather:BR (mist)
QC Flag:automated observation with no human augmentation
Text:KHLB 071235Z AUTO 27004KT 6SM BR BKN007 BKN060 06/06 A3006 RMK A01
Temperature: 6.0°C ( 43°F)
Dewpoint: 6.0°C ( 43°F) [RH = 100%]
Pressure (altimeter):30.06 inches Hg (1018.0 mb)
Winds:from the W (270 degrees) at 5 MPH (4 knots; 2.1 m/s)
Visibility: 6 sm ( 10 km)
Ceiling:700 feet AGL
Clouds: broken clouds at 700 feet AGL, broken clouds at 6000 feet AGL
Weather:BR (mist)
QC Flag:automated observation with no human augmentation
Text:KHLB 071215Z AUTO 00000KT 4SM BR SCT006 BKN065 05/05 A3005 RMK A01
Temperature: 5.0°C ( 41°F)
Dewpoint: 5.0°C ( 41°F) [RH = 100%]
Pressure (altimeter):30.05 inches Hg (1017.7 mb)
Winds:calm
Visibility: 4 sm ( 6 km)
Ceiling:6500 feet AGL
Clouds: scattered clouds at 600 feet AGL, broken clouds at 6500 feet AGL
Weather:BR (mist)
QC Flag:automated observation with no human augmentation
Text:KHLB 071155Z AUTO 00000KT 2 1/2SM BR SCT005 05/05 A3005 RMK A01
Temperature: 5.0°C ( 41°F)
Dewpoint: 5.0°C ( 41°F) [RH = 100%]
Pressure (altimeter):30.05 inches Hg (1017.7 mb)
Winds:calm
Visibility: 2.50 sm ( 4.02 km)
Ceiling:at least 12,000 feet AGL
Clouds: scattered clouds at 500 feet AGL
Weather:BR (mist)
QC Flag:automated observation with no human augmentation
Text:KHLB 071135Z AUTO 00000KT 2 1/2SM BR SCT085 05/05 A3004 RMK A01
Temperature: 5.0°C ( 41°F)
Dewpoint: 5.0°C ( 41°F) [RH = 100%]
Pressure (altimeter):30.04 inches Hg (1017.4 mb)
Winds:calm
Visibility: 2.50 sm ( 4.02 km)
Ceiling:at least 12,000 feet AGL
Clouds: scattered clouds at 8500 feet AGL
Weather:BR (mist)
QC Flag:automated observation with no human augmentation
Text:KHLB 071115Z AUTO 00000KT 1 1/4SM BR FEW065 OVC080 04/04 A3003 RMK A01
Temperature: 4.0°C ( 39°F)
Dewpoint: 4.0°C ( 39°F) [RH = 100%]
Pressure (altimeter):30.03 inches Hg (1017.0 mb)
Winds:calm
Visibility: 1.25 sm ( 2.01 km)
Ceiling:8000 feet AGL
Clouds: few clouds at 6500 feet AGL, overcast cloud deck at 8000 feet AGL
Weather:BR (mist)
QC Flag:automated observation with no human augmentation
Text:KHLB 071055Z AUTO 00000KT 2SM BR BKN080 BKN090 04/04 A3002 RMK A01
Temperature: 4.0°C ( 39°F)
Dewpoint: 4.0°C ( 39°F) [RH = 100%]
Pressure (altimeter):30.02 inches Hg (1016.7 mb)
Winds:calm
Visibility: 2.00 sm ( 3.22 km)
Ceiling:8000 feet AGL
Clouds: broken clouds at 8000 feet AGL, broken clouds at 9000 feet AGL
Weather:BR (mist)
QC Flag:automated observation with no human augmentation
Text:KHLB 071035Z AUTO 00000KT 3SM BR SCT080 BKN090 04/04 A3002 RMK A01
Temperature: 4.0°C ( 39°F)
Dewpoint: 4.0°C ( 39°F) [RH = 100%]
Pressure (altimeter):30.02 inches Hg (1016.7 mb)
Winds:calm
Visibility: 3 sm ( 5 km)
Ceiling:9000 feet AGL
Clouds: scattered clouds at 8000 feet AGL, broken clouds at 9000 feet AGL
Weather:BR (mist)
QC Flag:automated observation with no human augmentation
Text:KHLB 071015Z AUTO 00000KT 3SM BR FEW006 SCT090 04/04 A3002 RMK A01
Temperature: 4.0°C ( 39°F)
Dewpoint: 4.0°C ( 39°F) [RH = 100%]
Pressure (altimeter):30.02 inches Hg (1016.7 mb)
Winds:calm
Visibility: 3 sm ( 5 km)
Ceiling:at least 12,000 feet AGL
Clouds: few clouds at 600 feet AGL, scattered clouds at 9000 feet AGL
Weather:BR (mist)
QC Flag:automated observation with no human augmentation
Text:KHLB 070955Z AUTO 00000KT 3SM BR FEW005 04/04 A3001 RMK A01
Temperature: 4.0°C ( 39°F)
Dewpoint: 4.0°C ( 39°F) [RH = 100%]
Pressure (altimeter):30.01 inches Hg (1016.3 mb)
Winds:calm
Visibility: 3 sm ( 5 km)
Ceiling:at least 12,000 feet AGL
Clouds: few clouds at 500 feet AGL
Weather:BR (mist)
QC Flag:automated observation with no human augmentation
Text:KHLB 070935Z AUTO 00000KT 3SM BR FEW005 04/04 A3001 RMK A01
Temperature: 4.0°C ( 39°F)
Dewpoint: 4.0°C ( 39°F) [RH = 100%]
Pressure (altimeter):30.01 inches Hg (1016.3 mb)
Winds:calm
Visibility: 3 sm ( 5 km)
Ceiling:at least 12,000 feet AGL
Clouds: few clouds at 500 feet AGL
Weather:BR (mist)
QC Flag:automated observation with no human augmentation
Text:KHLB 070915Z AUTO VRB03KT 4SM BR CLR 04/04 A3001 RMK A01
Temperature: 4.0°C ( 39°F)
Dewpoint: 4.0°C ( 39°F) [RH = 100%]
Pressure (altimeter):30.01 inches Hg (1016.3 mb)
Winds:variable direction winds at 3 MPH (3 knots; 1.5 m/s)
Visibility: 4 sm ( 6 km)
Ceiling:at least 12,000 feet AGL
Clouds:sky clear below 12,000 feet AGL
Weather:BR (mist)
QC Flag:automated observation with no human augmentation
Text:KHLB 070855Z AUTO 00000KT 4SM BR CLR 04/04 A3001 RMK A01
Temperature: 4.0°C ( 39°F)
Dewpoint: 4.0°C ( 39°F) [RH = 100%]
Pressure (altimeter):30.01 inches Hg (1016.3 mb)
Winds:calm
Visibility: 4 sm ( 6 km)
Ceiling:at least 12,000 feet AGL
Clouds:sky clear below 12,000 feet AGL
Weather:BR (mist)
QC Flag:automated observation with no human augmentation
Text:KHLB 070835Z AUTO VRB03KT 5SM BR CLR 04/04 A3000 RMK A01
Temperature: 4.0°C ( 39°F)
Dewpoint: 4.0°C ( 39°F) [RH = 100%]
Pressure (altimeter):30.00 inches Hg (1016.0 mb)
Winds:variable direction winds at 3 MPH (3 knots; 1.5 m/s)
Visibility: 5 sm ( 8 km)
Ceiling:at least 12,000 feet AGL
Clouds:sky clear below 12,000 feet AGL
Weather:BR (mist)
QC Flag:automated observation with no human augmentation
Text:KHLB 070815Z AUTO 00000KT 6SM BR FEW010 05/05 A3000 RMK A01
Temperature: 5.0°C ( 41°F)
Dewpoint: 5.0°C ( 41°F) [RH = 100%]
Pressure (altimeter):30.00 inches Hg (1016.0 mb)
Winds:calm
Visibility: 6 sm ( 10 km)
Ceiling:at least 12,000 feet AGL
Clouds: few clouds at 1000 feet AGL
Weather:BR (mist)
QC Flag:automated observation with no human augmentation
Text:KHLB 070755Z AUTO 30003KT 6SM BR CLR 05/05 A3001 RMK A01
Temperature: 5.0°C ( 41°F)
Dewpoint: 5.0°C ( 41°F) [RH = 100%]
Pressure (altimeter):30.01 inches Hg (1016.3 mb)
Winds:from the WNW (300 degrees) at 3 MPH (3 knots; 1.5 m/s)
Visibility: 6 sm ( 10 km)
Ceiling:at least 12,000 feet AGL
Clouds:sky clear below 12,000 feet AGL
Weather:BR (mist)
QC Flag:automated observation with no human augmentation
Text:KHLB 070735Z AUTO VRB05KT 7SM CLR 05/05 A3000 RMK A01
Temperature: 5.0°C ( 41°F)
Dewpoint: 5.0°C ( 41°F) [RH = 100%]
Pressure (altimeter):30.00 inches Hg (1016.0 mb)
Winds:variable direction winds at 6 MPH (5 knots; 2.6 m/s)
Visibility: 7 sm ( 11 km)
Ceiling:at least 12,000 feet AGL
Clouds:sky clear below 12,000 feet AGL
QC Flag:automated observation with no human augmentation
Text:KHLB 070715Z AUTO VRB03KT 8SM CLR 05/05 A3000 RMK A01
Temperature: 5.0°C ( 41°F)
Dewpoint: 5.0°C ( 41°F) [RH = 100%]
Pressure (altimeter):30.00 inches Hg (1016.0 mb)
Winds:variable direction winds at 3 MPH (3 knots; 1.5 m/s)
Visibility: 8 sm ( 13 km)
Ceiling:at least 12,000 feet AGL
Clouds:sky clear below 12,000 feet AGL
QC Flag:automated observation with no human augmentation
Text:KHLB 070655Z AUTO VRB04KT 10SM FEW013 SCT023 06/06 A3001 RMK A01
Temperature: 6.0°C ( 43°F)
Dewpoint: 6.0°C ( 43°F) [RH = 100%]
Pressure (altimeter):30.01 inches Hg (1016.3 mb)
Winds:variable direction winds at 5 MPH (4 knots; 2.1 m/s)
Visibility:10 or more sm (16+ km)
Ceiling:at least 12,000 feet AGL
Clouds: few clouds at 1300 feet AGL, scattered clouds at 2300 feet AGL
QC Flag:automated observation with no human augmentation
Text:KHLB 070635Z AUTO VRB06KT 10SM FEW023 06/06 A3001 RMK A01
Temperature: 6.0°C ( 43°F)
Dewpoint: 6.0°C ( 43°F) [RH = 100%]
Pressure (altimeter):30.01 inches Hg (1016.3 mb)
Winds:variable direction winds at 7 MPH (6 knots; 3.1 m/s)
Visibility:10 or more sm (16+ km)
Ceiling:at least 12,000 feet AGL
Clouds: few clouds at 2300 feet AGL
QC Flag:automated observation with no human augmentation
Text:KHLB 070615Z AUTO 31006G13KT 9SM FEW013 SCT024 SCT029 07/07 A3002 RMK A01
Temperature: 7.0°C ( 45°F)
Dewpoint: 7.0°C ( 45°F) [RH = 100%]
Pressure (altimeter):30.02 inches Hg (1016.7 mb)
Winds:from the NW (310 degrees) at 7 MPH (6 knots; 3.1 m/s) gusting to 15 MPH (13 knots; 6.7 m/s)
Visibility: 9 sm ( 14 km)
Ceiling:at least 12,000 feet AGL
Clouds: few clouds at 1300 feet AGL, scattered clouds at 2400 feet AGL, scattered clouds at 2900 feet AGL
QC Flag:automated observation with no human augmentation
Text:KHLB 070555Z AUTO 31007G12KT 280V360 9SM FEW013 SCT017 BKN026 08/08 A3001 RMK A01 P0001
Temperature: 8.0°C ( 46°F)
Dewpoint: 8.0°C ( 46°F) [RH = 100%]
Pressure (altimeter):30.01 inches Hg (1016.3 mb)
Winds:from the NW (310 degrees) at 8 MPH (7 knots; 3.6 m/s) gusting to 14 MPH (12 knots; 6.2 m/s)
Visibility: 9 sm ( 14 km)
Ceiling:2600 feet AGL
Clouds: few clouds at 1300 feet AGL, scattered clouds at 1700 feet AGL, broken clouds at 2600 feet AGL
QC Flag:automated observation with no human augmentation
Text:KHLB 070535Z AUTO 31005G11KT 7SM SCT012 BKN017 OVC036 08/08 A3001 RMK A01
Temperature: 8.0°C ( 46°F)
Dewpoint: 8.0°C ( 46°F) [RH = 100%]
Pressure (altimeter):30.01 inches Hg (1016.3 mb)
Winds:from the NW (310 degrees) at 6 MPH (5 knots; 2.6 m/s) gusting to 13 MPH (11 knots; 5.7 m/s)
Visibility: 7 sm ( 11 km)
Ceiling:1700 feet AGL
Clouds: scattered clouds at 1200 feet AGL, broken clouds at 1700 feet AGL, overcast cloud deck at 3600 feet AGL
QC Flag:automated observation with no human augmentation
Text:KHLB 070515Z AUTO 32006KT 9SM SCT009 BKN015 OVC036 08/08 A3001 RMK A01
Temperature: 8.0°C ( 46°F)
Dewpoint: 8.0°C ( 46°F) [RH = 100%]
Pressure (altimeter):30.01 inches Hg (1016.3 mb)
Winds:from the NW (320 degrees) at 7 MPH (6 knots; 3.1 m/s)
Visibility: 9 sm ( 14 km)
Ceiling:1500 feet AGL
Clouds: scattered clouds at 900 feet AGL, broken clouds at 1500 feet AGL, overcast cloud deck at 3600 feet AGL
QC Flag:automated observation with no human augmentation
Text:KHLB 070455Z AUTO 31006KT 7SM BKN008 OVC016 09/09 A3001 RMK A01
Temperature: 9.0°C ( 48°F)
Dewpoint: 9.0°C ( 48°F) [RH = 100%]
Pressure (altimeter):30.01 inches Hg (1016.3 mb)
Winds:from the NW (310 degrees) at 7 MPH (6 knots; 3.1 m/s)
Visibility: 7 sm ( 11 km)
Ceiling:800 feet AGL
Clouds: broken clouds at 800 feet AGL, overcast cloud deck at 1600 feet AGL
QC Flag:automated observation with no human augmentation
Text:KHLB 070435Z AUTO 30008KT 250V330 1 3/4SM BR BKN008 OVC014 08/08 A3001 RMK A01
Temperature: 8.0°C ( 46°F)
Dewpoint: 8.0°C ( 46°F) [RH = 100%]
Pressure (altimeter):30.01 inches Hg (1016.3 mb)
Winds:from the WNW (300 degrees) at 9 MPH (8 knots; 4.1 m/s)
Visibility: 1.75 sm ( 2.82 km)
Ceiling:800 feet AGL
Clouds: broken clouds at 800 feet AGL, overcast cloud deck at 1400 feet AGL
Weather:BR (mist)
QC Flag:automated observation with no human augmentation
Text:KHLB 070415Z AUTO 28006KT 6SM BR FEW008 OVC014 08/08 A3001 RMK A01
Temperature: 8.0°C ( 46°F)
Dewpoint: 8.0°C ( 46°F) [RH = 100%]
Pressure (altimeter):30.01 inches Hg (1016.3 mb)
Winds:from the W (280 degrees) at 7 MPH (6 knots; 3.1 m/s)
Visibility: 6 sm ( 10 km)
Ceiling:1400 feet AGL
Clouds: few clouds at 800 feet AGL, overcast cloud deck at 1400 feet AGL
Weather:BR (mist)
QC Flag:automated observation with no human augmentation
Text:KHLB 070355Z AUTO VRB03KT 10SM BKN015 BKN033 OVC055 08/08 A3002 RMK A01
Temperature: 8.0°C ( 46°F)
Dewpoint: 8.0°C ( 46°F) [RH = 100%]
Pressure (altimeter):30.02 inches Hg (1016.7 mb)
Winds:variable direction winds at 3 MPH (3 knots; 1.5 m/s)
Visibility:10 or more sm (16+ km)
Ceiling:1500 feet AGL
Clouds: broken clouds at 1500 feet AGL, broken clouds at 3300 feet AGL, overcast cloud deck at 5500 feet AGL
QC Flag:automated observation with no human augmentation
Text:KHLB 070335Z AUTO 00000KT 10SM FEW036 SCT043 BKN049 08/08 A3002 RMK A01
Temperature: 8.0°C ( 46°F)
Dewpoint: 8.0°C ( 46°F) [RH = 100%]
Pressure (altimeter):30.02 inches Hg (1016.7 mb)
Winds:calm
Visibility:10 or more sm (16+ km)
Ceiling:4900 feet AGL
Clouds: few clouds at 3600 feet AGL, scattered clouds at 4300 feet AGL, broken clouds at 4900 feet AGL
QC Flag:automated observation with no human augmentation
Text:KHLB 070315Z AUTO VRB03KT 10SM BKN049 OVC060 08/08 A3002 RMK A01
Temperature: 8.0°C ( 46°F)
Dewpoint: 8.0°C ( 46°F) [RH = 100%]
Pressure (altimeter):30.02 inches Hg (1016.7 mb)
Winds:variable direction winds at 3 MPH (3 knots; 1.5 m/s)
Visibility:10 or more sm (16+ km)
Ceiling:4900 feet AGL
Clouds: broken clouds at 4900 feet AGL, overcast cloud deck at 6000 feet AGL
QC Flag:automated observation with no human augmentation
Text:KHLB 070255Z AUTO 29003KT 10SM BKN050 BKN075 OVC120 08/08 A3002 RMK A01
Temperature: 8.0°C ( 46°F)
Dewpoint: 8.0°C ( 46°F) [RH = 100%]
Pressure (altimeter):30.02 inches Hg (1016.7 mb)
Winds:from the WNW (290 degrees) at 3 MPH (3 knots; 1.5 m/s)
Visibility:10 or more sm (16+ km)
Ceiling:5000 feet AGL
Clouds: broken clouds at 5000 feet AGL, broken clouds at 7500 feet AGL, overcast cloud deck at 12000 feet AGL
QC Flag:automated observation with no human augmentation
Text:KHLB 070235Z AUTO 00000KT 9SM SCT028 BKN047 OVC100 08/08 A3001 RMK A01
Temperature: 8.0°C ( 46°F)
Dewpoint: 8.0°C ( 46°F) [RH = 100%]
Pressure (altimeter):30.01 inches Hg (1016.3 mb)
Winds:calm
Visibility: 9 sm ( 14 km)
Ceiling:4700 feet AGL
Clouds: scattered clouds at 2800 feet AGL, broken clouds at 4700 feet AGL, overcast cloud deck at 10000 feet AGL
QC Flag:automated observation with no human augmentation
Text:KHLB 070215Z AUTO VRB04KT 3SM BR FEW031 SCT042 BKN048 08/08 A3000 RMK A01
Temperature: 8.0°C ( 46°F)
Dewpoint: 8.0°C ( 46°F) [RH = 100%]
Pressure (altimeter):30.00 inches Hg (1016.0 mb)
Winds:variable direction winds at 5 MPH (4 knots; 2.1 m/s)
Visibility: 3 sm ( 5 km)
Ceiling:4800 feet AGL
Clouds: few clouds at 3100 feet AGL, scattered clouds at 4200 feet AGL, broken clouds at 4800 feet AGL
Weather:BR (mist)
QC Flag:automated observation with no human augmentation
Text:KHLB 070155Z AUTO 00000KT 8SM BKN048 BKN055 OVC060 08/08 A3001 RMK A01
Temperature: 8.0°C ( 46°F)
Dewpoint: 8.0°C ( 46°F) [RH = 100%]
Pressure (altimeter):30.01 inches Hg (1016.3 mb)
Winds:calm
Visibility: 8 sm ( 13 km)
Ceiling:4800 feet AGL
Clouds: broken clouds at 4800 feet AGL, broken clouds at 5500 feet AGL, overcast cloud deck at 6000 feet AGL
QC Flag:automated observation with no human augmentation